Time;durP1;ratioP1;P1;durP2;ratioP2;P2;SDS_P1;SDS_P2;PMS_P1;PMS_P2;Temp;Humidity;BMP_temperature;BMP_pressure;BME280_temperature;BME280_humidity;BME280_pressure;Samples;Min_cycle;Max_cycle;Signal;HPM_P1;HPM_P2
2021/08/16 00:01:13;;;;;;;13.60;5.65;;;;;;;22.67;47.99;100532.69;4955703;28;20054;-69
2021/08/16 00:03:38;;;;;;;17.27;5.57;;;;;;;22.83;49.04;100541.25;4977403;28;20493;-70
2021/08/16 00:06:04;;;;;;;24.42;5.35;;;;;;;22.76;49.82;100540.44;4971190;28;20027;-69
2021/08/16 00:08:29;;;;;;;17.05;5.28;;;;;;;22.68;50.07;100531.81;4956155;28;20391;-67
2021/08/16 00:10:55;;;;;;;14.65;4.65;;;;;;;22.66;47.65;100509.03;4977874;28;20027;-71
2021/08/16 00:13:24;;;;;;;17.35;5.45;;;;;;;22.74;46.80;100523.84;4972058;28;20059;-72
2021/08/16 00:15:50;;;;;;;9.32;4.25;;;;;;;22.28;46.88;100482.22;4971991;28;20062;-69
2021/08/16 00:18:15;;;;;;;10.60;4.68;;;;;;;22.35;47.30;100507.56;4975314;28;20564;-70
2021/08/16 00:20:41;;;;;;;14.02;5.10;;;;;;;22.00;47.83;100490.41;4975028;28;20084;-69
2021/08/16 00:23:06;;;;;;;10.43;4.50;;;;;;;22.02;48.51;100512.31;4975704;28;20077;-67
2021/08/16 00:25:31;;;;;;;11.73;4.80;;;;;;;21.88;49.47;100509.81;4974430;28;20019;-74
2021/08/16 00:27:57;;;;;;;12.52;4.40;;;;;;;22.14;49.27;100506.94;4978596;28;20031;-69
2021/08/16 00:30:22;;;;;;;10.43;4.40;;;;;;;22.02;49.52;100480.78;4975045;28;20098;-70
2021/08/16 00:32:49;;;;;;;13.20;4.28;;;;;;;22.21;50.08;100502.47;4974658;28;20496;-67
2021/08/16 00:35:15;;;;;;;11.85;4.93;;;;;;;22.05;51.05;100496.50;4974600;28;20437;-72
2021/08/16 00:37:40;;;;;;;18.38;4.65;;;;;;;22.10;51.57;100497.31;4971939;28;20031;-70
2021/08/16 00:40:06;;;;;;;17.95;5.55;;;;;;;22.35;51.16;100511.97;4973711;28;20053;-69
2021/08/16 00:42:33;;;;;;;22.38;4.70;;;;;;;22.54;51.11;100510.91;4974830;28;20034;-71
2021/08/16 00:44:59;;;;;;;26.20;5.43;;;;;;;22.32;51.52;100512.00;4974714;28;20037;-68
2021/08/16 00:47:24;;;;;;;34.70;5.80;;;;;;;22.11;52.38;100514.84;4974910;28;20034;-72
2021/08/16 00:49:50;;;;;;;24.95;6.47;;;;;;;22.29;51.25;100505.91;4973650;28;20030;-70
2021/08/16 00:52:16;;;;;;;25.25;5.53;;;;;;;22.29;50.90;100482.22;4974811;28;20035;-74
2021/08/16 00:54:41;;;;;;;19.50;5.40;;;;;;;21.84;52.43;100481.81;4974480;28;20054;-69
2021/08/16 00:57:08;;;;;;;16.58;5.00;;;;;;;22.00;52.26;100495.69;4974814;28;20054;-68
2021/08/16 00:59:33;;;;;;;18.45;5.28;;;;;;;22.01;52.70;100488.66;4974583;28;20038;-69
2021/08/16 01:01:59;;;;;;;15.05;4.55;;;;;;;22.05;52.07;100499.13;4974668;28;20026;-75
2021/08/16 01:04:27;;;;;;;11.05;4.32;;;;;;;21.91;51.07;100490.53;4975004;28;20038;-70
2021/08/16 01:06:52;;;;;;;8.65;4.03;;;;;;;21.85;50.48;100501.94;4974474;28;20106;-70
2021/08/16 01:09:18;;;;;;;8.15;4.35;;;;;;;21.59;50.96;100486.41;4974275;28;20507;-69
2021/08/16 01:11:45;;;;;;;7.57;4.07;;;;;;;21.56;50.71;100491.69;4974228;28;20035;-68
2021/08/16 01:14:10;;;;;;;8.20;4.28;;;;;;;21.72;50.73;100498.56;4974243;28;20114;-73
2021/08/16 01:16:36;;;;;;;7.47;4.20;;;;;;;21.53;51.23;100497.78;4974286;28;20161;-68
2021/08/16 01:19:01;;;;;;;8.93;4.35;;;;;;;21.63;51.29;100498.63;4974294;28;20027;-70
2021/08/16 01:21:27;;;;;;;8.63;4.35;;;;;;;21.60;51.71;100493.41;4973236;28;20496;-71
2021/08/16 01:23:52;;;;;;;7.43;4.22;;;;;;;21.72;51.33;100495.06;4971801;28;20065;-69
2021/08/16 01:26:18;;;;;;;9.05;4.55;;;;;;;21.65;52.19;100496.88;4974332;28;20035;-71
2021/08/16 01:28:43;;;;;;;8.70;4.10;;;;;;;21.58;52.21;100492.56;4974347;28;20026;-68
2021/08/16 01:31:09;;;;;;;8.88;4.78;;;;;;;21.59;52.12;100486.41;4989050;28;20038;-68
2021/08/16 01:33:37;;;;;;;11.40;6.50;;;;;;;21.67;51.79;100491.59;4974042;28;20053;-70
2021/08/16 01:36:03;;;;;;;13.70;6.85;;;;;;;21.61;51.71;100489.91;4973722;28;20434;-73
2021/08/16 01:38:35;;;;;;;21.05;6.88;;;;;;;21.57;53.28;100486.44;4973820;28;20057;-71
2021/08/16 01:41:01;;;;;;;20.60;6.68;;;;;;;21.60;53.27;100496.03;5004492;28;20050;-70
2021/08/16 01:43:26;;;;;;;18.77;6.78;;;;;;;21.40;53.23;100490.91;4973696;28;20034;-71
2021/08/16 01:45:52;;;;;;;13.68;6.05;;;;;;;21.43;51.66;100485.63;4973889;28;20069;-71
2021/08/16 01:48:18;;;;;;;9.80;4.97;;;;;;;20.83;51.49;100500.00;4973457;28;20031;-70
2021/08/16 01:50:45;;;;;;;9.65;4.75;;;;;;;20.22;52.81;100490.59;4974272;28;20035;-68
2021/08/16 01:53:11;;;;;;;6.85;4.72;;;;;;;19.35;55.05;100511.53;4973773;28;20164;-71
2021/08/16 01:55:37;;;;;;;7.07;4.38;;;;;;;19.23;55.70;100500.19;4973434;28;20046;-71
2021/08/16 01:58:04;;;;;;;7.70;4.40;;;;;;;19.52;54.92;100503.72;4973605;28;20026;-73
2021/08/16 02:00:30;;;;;;;8.80;4.35;;;;;;;19.42;55.02;100492.34;4973857;28;20037;-71
2021/08/16 02:02:55;;;;;;;9.25;4.13;;;;;;;19.03;56.38;100501.91;4972975;28;20045;-71
2021/08/16 02:05:21;;;;;;;10.55;4.25;;;;;;;18.75;57.22;100507.88;4973565;28;20032;-70
2021/08/16 02:07:46;;;;;;;6.55;4.15;;;;;;;18.47;58.08;100511.22;4973262;28;20030;-70
2021/08/16 02:10:12;;;;;;;8.23;4.20;;;;;;;18.25;57.98;100478.00;4972155;28;20051;-68
2021/08/16 02:12:38;;;;;;;5.68;3.92;;;;;;;18.44;58.37;100493.78;4973249;28;20057;-70
2021/08/16 02:15:06;;;;;;;6.10;4.18;;;;;;;18.54;57.70;100500.81;4973121;28;20023;-68
2021/08/16 02:17:31;;;;;;;6.10;4.00;;;;;;;18.63;57.60;100499.09;4972969;28;20085;-70
2021/08/16 02:19:57;;;;;;;5.60;3.92;;;;;;;18.69;57.42;100501.72;4973044;28;20027;-69
2021/08/16 02:22:22;;;;;;;6.35;3.50;;;;;;;18.66;57.23;100475.59;4973175;28;20031;-68
2021/08/16 02:24:48;;;;;;;7.38;4.10;;;;;;;19.02;56.65;100502.75;4973119;28;20564;-74
2021/08/16 02:27:14;;;;;;;7.78;4.00;;;;;;;19.17;56.35;100500.16;4972909;28;20023;-71
2021/08/16 02:29:39;;;;;;;11.10;3.88;;;;;;;19.40;55.39;100499.31;4972854;28;20026;-69
2021/08/16 02:32:05;;;;;;;5.82;3.95;;;;;;;19.62;54.62;100494.13;4972787;28;20109;-68
2021/08/16 02:34:30;;;;;;;11.13;4.05;;;;;;;19.73;54.44;100495.00;4972964;28;20089;-72
2021/08/16 02:36:56;;;;;;;9.25;4.10;;;;;;;19.76;53.92;100500.22;4972963;28;20522;-72
2021/08/16 02:39:21;;;;;;;11.13;4.00;;;;;;;19.71;53.72;100501.97;4972707;28;20473;-69
2021/08/16 02:41:47;;;;;;;7.32;3.80;;;;;;;19.83;53.46;100507.22;4972631;28;20105;-71
2021/08/16 02:44:12;;;;;;;6.50;3.70;;;;;;;19.94;53.64;100495.84;4972750;28;20023;-71
2021/08/16 02:46:38;;;;;;;5.95;4.10;;;;;;;19.73;53.14;100460.94;4972591;28;20031;-68
2021/08/16 02:49:03;;;;;;;7.47;3.90;;;;;;;20.05;53.20;100499.38;4972565;28;20023;-70
2021/08/16 02:51:29;;;;;;;6.60;4.00;;;;;;;20.07;52.78;100502.84;4972776;28;20026;-73
2021/08/16 02:53:55;;;;;;;9.60;4.25;;;;;;;20.08;52.84;100498.47;4972676;28;20034;-68
2021/08/16 02:56:21;;;;;;;8.85;4.05;;;;;;;20.20;52.78;100501.09;4972216;28;20488;-69
2021/08/16 02:58:46;;;;;;;13.63;4.47;;;;;;;19.75;53.63;100513.31;4972519;28;20497;-68
2021/08/16 03:01:11;;;;;;;11.38;4.20;;;;;;;19.48;54.86;100518.53;4969540;28;20035;-68
2021/08/16 03:03:37;;;;;;;9.10;4.13;;;;;;;19.28;54.25;100483.59;4972750;28;20031;-71
2021/08/16 03:06:03;;;;;;;11.63;4.43;;;;;;;19.10;55.58;100521.94;4972497;28;20034;-68
2021/08/16 03:08:29;;;;;;;7.80;4.35;;;;;;;18.85;56.00;100521.84;4972721;28;20027;-70
2021/08/16 03:10:55;;;;;;;12.10;4.35;;;;;;;18.72;56.78;100520.06;4972313;28;20045;-75
2021/08/16 03:13:20;;;;;;;8.57;4.28;;;;;;;18.59;56.88;100520.00;4975140;28;20413;-70
2021/08/16 03:15:45;;;;;;;8.88;4.63;;;;;;;18.60;56.96;100526.09;4976443;28;20041;-68
2021/08/16 03:18:11;;;;;;;8.75;4.20;;;;;;;18.48;57.05;100529.53;4976106;28;20399;-75
2021/08/16 03:20:36;;;;;;;10.38;4.43;;;;;;;18.45;57.26;100526.03;4976139;28;20027;-68
2021/08/16 03:23:02;;;;;;;7.10;4.35;;;;;;;18.38;57.43;100530.34;4976262;28;20034;-74
2021/08/16 03:25:27;;;;;;;11.30;4.25;;;;;;;18.40;57.42;100532.09;4976189;28;20548;-68
2021/08/16 03:27:53;;;;;;;10.65;4.70;;;;;;;18.08;58.43;100522.31;4976057;28;20528;-72
2021/08/16 03:30:19;;;;;;;17.70;4.80;;;;;;;18.18;58.04;100504.09;4976112;28;20026;-71
2021/08/16 03:32:47;;;;;;;14.82;4.68;;;;;;;18.57;57.37;100520.88;4976365;28;20397;-69
2021/08/16 03:35:14;;;;;;;11.82;5.05;;;;;;;18.58;56.58;100486.88;4976353;28;20503;-71
2021/08/16 03:37:40;;;;;;;10.30;4.47;;;;;;;18.89;56.47;100512.25;4976020;28;20034;-68
2021/08/16 03:40:06;;;;;;;8.48;4.07;;;;;;;19.02;56.07;100510.59;4976076;28;20027;-68
2021/08/16 03:42:32;;;;;;;13.63;4.75;;;;;;;19.22;55.39;100516.75;4975973;28;20059;-70
2021/08/16 03:44:57;;;;;;;12.82;4.65;;;;;;;19.12;55.12;100475.75;4975699;28;20098;-72
2021/08/16 03:47:23;;;;;;;12.95;4.38;;;;;;;19.37;55.06;100509.81;4976162;28;20030;-73
2021/08/16 03:49:48;;;;;;;10.90;4.85;;;;;;;19.46;54.97;100498.47;4976008;28;20066;-71
2021/08/16 03:52:14;;;;;;;11.13;4.47;;;;;;;19.24;55.10;100496.69;4975829;28;20042;-71
2021/08/16 03:54:39;;;;;;;12.38;4.43;;;;;;;19.37;54.91;100515.03;4975750;28;20023;-68
2021/08/16 03:57:05;;;;;;;15.43;4.65;;;;;;;19.55;54.38;100514.19;4976054;28;20490;-74
2021/08/16 03:59:32;;;;;;;13.60;4.60;;;;;;;19.64;54.24;100503.72;4975426;28;20055;-68
2021/08/16 04:01:57;;;;;;;8.40;4.30;;;;;;;19.55;54.00;100517.69;4975864;28;20027;-71
2021/08/16 04:04:22;;;;;;;8.85;4.38;;;;;;;19.51;54.21;100510.69;4990507;28;20512;-70
2021/08/16 04:06:49;;;;;;;12.68;4.55;;;;;;;19.42;54.38;100509.81;4975429;28;20031;-67
2021/08/16 04:09:15;;;;;;;13.68;4.63;;;;;;;19.58;53.88;100513.31;4975388;28;20538;-69
2021/08/16 04:11:40;;;;;;;9.63;4.25;;;;;;;19.61;53.99;100502.84;4975183;28;20110;-68
2021/08/16 04:14:06;;;;;;;13.07;4.60;;;;;;;19.75;54.02;100514.22;4975072;28;20050;-68
2021/08/16 04:16:31;;;;;;;18.23;5.00;;;;;;;19.74;54.05;100501.97;4975423;28;20113;-69
2021/08/16 04:18:57;;;;;;;24.08;5.63;;;;;;;19.97;53.79;100522.06;4975442;28;20031;-68
2021/08/16 04:21:23;;;;;;;13.00;4.75;;;;;;;19.73;53.81;100481.88;4975786;28;20026;-71
2021/08/16 04:23:49;;;;;;;18.52;5.32;;;;;;;19.80;54.01;100478.41;4974239;28;20106;-71
2021/08/16 04:26:14;;;;;;;14.15;5.07;;;;;;;19.59;54.66;100522.91;4989947;28;20121;-70
2021/08/16 04:28:40;;;;;;;16.20;5.10;;;;;;;19.23;55.88;100523.75;4975004;28;20106;-68
2021/08/16 04:31:06;;;;;;;15.80;4.80;;;;;;;19.14;55.90;100528.06;4975178;28;20034;-72
2021/08/16 04:33:32;;;;;;;11.95;5.03;;;;;;;19.29;55.18;100508.91;4975166;28;20026;-68
2021/08/16 04:35:57;;;;;;;18.30;4.93;;;;;;;19.50;55.52;100516.81;4975018;28;20030;-69
2021/08/16 04:38:23;;;;;;;12.85;5.03;;;;;;;19.58;54.13;100513.31;4975072;28;20397;-68
2021/08/16 04:40:52;;;;;;;13.77;4.80;;;;;;;19.73;53.55;100523.78;4975195;28;20452;-70
2021/08/16 04:43:19;;;;;;;;;;;;;;;19.71;53.69;100526.44;4975198;28;20038;-68
2021/08/16 04:45:44;;;;;;;13.05;4.75;;;;;;;19.63;54.26;100524.69;4975258;28;19949;-73
2021/08/16 04:48:10;;;;;;;8.13;4.50;;;;;;;19.48;54.19;100508.06;4974642;28;20462;-72
2021/08/16 04:50:36;;;;;;;12.48;5.22;;;;;;;19.65;54.13;100531.66;4989835;28;20030;-71
2021/08/16 04:53:01;;;;;;;11.82;4.22;;;;;;;19.63;54.46;100533.41;4974719;28;20027;-70
2021/08/16 04:55:27;;;;;;;7.88;4.65;;;;;;;19.67;54.31;100529.03;4974745;28;20027;-75
2021/08/16 04:57:52;;;;;;;9.75;4.70;;;;;;;19.70;54.41;100529.03;4974509;28;20035;-73
2021/08/16 05:00:20;;;;;;;12.35;4.55;;;;;;;19.77;54.75;100525.53;4974773;28;20046;-73
2021/08/16 05:02:45;;;;;;;12.80;4.70;;;;;;;19.90;54.91;100530.81;4974740;28;20038;-75
2021/08/16 05:05:13;;;;;;;12.13;5.65;;;;;;;19.88;55.78;100533.44;4974801;28;20406;-68
2021/08/16 05:07:47;;;;;;;8.90;4.72;;;;;;;19.98;55.13;100536.94;4974469;28;20035;-68
2021/08/16 05:10:13;;;;;;;15.75;4.63;;;;;;;20.02;55.35;100525.56;4974608;28;20030;-69
2021/08/16 05:12:39;;;;;;;16.27;5.00;;;;;;;20.22;55.48;100533.38;4974445;28;20043;-71
2021/08/16 05:15:05;;;;;;;13.48;4.93;;;;;;;20.38;56.31;100534.22;4974404;28;20077;-68
2021/08/16 05:17:34;;;;;;;9.95;5.03;;;;;;;20.46;56.88;100536.81;4974389;28;20030;-72
2021/08/16 05:20:00;;;;;;;13.98;5.03;;;;;;;20.14;56.98;100472.25;4974542;28;20437;-71
2021/08/16 05:22:26;;;;;;;9.25;4.72;;;;;;;20.53;57.05;100528.06;4973778;28;20046;-74
2021/08/16 05:24:52;;;;;;;9.82;5.15;;;;;;;20.65;56.85;100535.91;4974135;28;20130;-74
2021/08/16 05:27:17;;;;;;;12.15;4.93;;;;;;;20.81;56.50;100535.84;4974004;28;20121;-72
2021/08/16 05:29:43;;;;;;;11.80;5.43;;;;;;;20.75;56.44;100528.00;4974189;28;20101;-72
2021/08/16 05:32:09;;;;;;;10.98;5.05;;;;;;;20.89;55.98;100520.97;4974503;28;20066;-70
2021/08/16 05:34:35;;;;;;;13.25;5.20;;;;;;;20.65;55.55;100472.09;4973800;28;20161;-74
2021/08/16 05:37:01;;;;;;;13.43;6.15;;;;;;;21.07;55.77;100529.63;4973714;28;20106;-67
2021/08/16 05:39:26;;;;;;;10.60;4.97;;;;;;;21.09;55.26;100533.13;4973824;28;20030;-69
2021/08/16 05:41:52;;;;;;;12.63;5.13;;;;;;;21.22;54.54;100531.28;4973730;28;20474;-74
2021/08/16 05:44:17;;;;;;;10.98;5.03;;;;;;;21.32;54.31;100522.47;4973815;28;20033;-68
2021/08/16 05:46:43;;;;;;;13.85;5.10;;;;;;;21.19;54.45;100528.69;4973873;28;20085;-71
2021/08/16 05:49:08;;;;;;;16.50;5.53;;;;;;;20.81;55.18;100521.00;4973673;28;20038;-72
2021/08/16 05:51:33;;;;;;;11.52;4.97;;;;;;;21.07;54.62;100524.38;4973565;28;20031;-71
2021/08/16 05:53:59;;;;;;;13.32;5.38;;;;;;;21.31;53.63;100533.88;4973517;28;20049;-70
2021/08/16 05:56:24;;;;;;;17.70;5.95;;;;;;;21.60;53.19;100531.06;4973379;28;20031;-71
2021/08/16 05:58:50;;;;;;;15.02;6.30;;;;;;;21.64;53.38;100513.50;4971347;28;20126;-68
2021/08/16 06:01:15;;;;;;;14.57;5.40;;;;;;;21.94;52.46;100537.78;4973607;28;20030;-69
2021/08/16 06:03:41;;;;;;;24.67;5.97;;;;;;;21.97;52.24;100536.00;4973642;28;20027;-71
2021/08/16 06:06:06;;;;;;;14.63;5.47;;;;;;;22.09;51.69;100528.88;4973391;28;20497;-71
2021/08/16 06:08:32;;;;;;;11.50;6.82;;;;;;;22.14;52.26;100522.72;4973259;28;20408;-68
2021/08/16 06:10:58;;;;;;;18.67;5.88;;;;;;;22.21;51.47;100518.25;4972829;28;20031;-71
2021/08/16 06:13:24;;;;;;;18.67;6.45;;;;;;;22.44;50.74;100523.31;4973256;28;20090;-71
2021/08/16 06:15:49;;;;;;;11.60;5.38;;;;;;;22.45;50.29;100496.13;4973082;28;20116;-71
2021/08/16 06:18:15;;;;;;;13.80;6.55;;;;;;;22.36;51.08;100509.31;4972977;28;20030;-73
2021/08/16 06:20:40;;;;;;;18.30;6.90;;;;;;;22.22;50.99;100517.38;4973085;28;20030;-68
2021/08/16 06:23:06;;;;;;;18.00;6.70;;;;;;;22.02;51.91;100527.19;4973279;28;20478;-68
2021/08/16 06:25:31;;;;;;;15.88;6.20;;;;;;;22.00;53.19;100531.63;4972875;28;20081;-68
2021/08/16 06:27:57;;;;;;;18.75;5.70;;;;;;;22.26;51.25;100528.72;4973088;28;20437;-73
2021/08/16 06:30:23;;;;;;;12.75;6.38;;;;;;;22.62;50.03;100529.25;4972930;28;20456;-70
2021/08/16 06:32:48;;;;;;;15.77;5.13;;;;;;;22.69;48.71;100525.66;4969767;28;20489;-69
2021/08/16 06:35:15;;;;;;;14.57;5.25;;;;;;;22.89;48.30;100532.41;4972539;28;20426;-70
2021/08/16 06:37:42;;;;;;;15.93;5.70;;;;;;;23.01;48.00;100534.88;4971888;28;20026;-67
2021/08/16 06:40:10;;;;;;;15.90;5.25;;;;;;;22.94;47.83;100527.94;4972480;28;20058;-68
2021/08/16 06:42:35;;;;;;;18.40;5.38;;;;;;;23.07;48.34;100529.53;4972517;28;20030;-67
2021/08/16 06:45:01;;;;;;;23.08;5.82;;;;;;;23.27;47.00;100529.25;4954426;28;20038;-75
2021/08/16 06:47:26;;;;;;;13.57;4.80;;;;;;;23.51;47.06;100536.84;4972249;28;20486;-71
2021/08/16 06:49:52;;;;;;;13.20;4.78;;;;;;;23.68;46.36;100523.41;4969343;28;20035;-68
2021/08/16 06:52:17;;;;;;;11.68;5.13;;;;;;;23.98;45.61;100527.28;4987232;28;20062;-69
2021/08/16 06:54:43;;;;;;;16.52;4.90;;;;;;;24.17;46.48;100517.25;4971996;28;20085;-70
2021/08/16 06:57:08;;;;;;;15.52;4.78;;;;;;;24.13;45.90;100520.00;4972273;28;20018;-69
2021/08/16 06:59:34;;;;;;;15.07;4.95;;;;;;;24.06;44.83;100490.22;4972345;28;20056;-68
2021/08/16 07:02:00;;;;;;;18.38;5.07;;;;;;;24.37;44.06;100502.84;4971862;28;20022;-69
2021/08/16 07:04:25;;;;;;;11.55;4.82;;;;;;;24.52;44.01;100507.81;4967638;28;20035;-71
2021/08/16 07:06:51;;;;;;;10.18;4.30;;;;;;;24.64;44.22;100519.03;4971685;28;20480;-67
2021/08/16 07:09:16;;;;;;;12.27;5.15;;;;;;;24.82;44.01;100523.97;4971743;28;20030;-67
2021/08/16 07:11:42;;;;;;;8.60;4.50;;;;;;;24.87;43.22;100523.84;4972013;28;20019;-68
2021/08/16 07:14:07;;;;;;;12.98;4.10;;;;;;;25.12;42.28;100524.19;4971906;28;20042;-69
2021/08/16 07:16:33;;;;;;;13.70;4.50;;;;;;;25.25;41.71;100523.91;4972187;28;20027;-71
2021/08/16 07:18:59;;;;;;;14.00;4.97;;;;;;;25.35;41.66;100520.13;4971887;28;20084;-68
2021/08/16 07:21:24;;;;;;;9.48;4.35;;;;;;;25.40;41.47;100526.22;4972237;28;20118;-69
2021/08/16 07:23:50;;;;;;;13.35;4.45;;;;;;;25.46;41.95;100527.81;4971721;28;20031;-69
2021/08/16 07:26:15;;;;;;;11.50;4.47;;;;;;;25.58;41.26;100518.72;4972154;28;20117;-69
2021/08/16 07:28:41;;;;;;;10.23;4.05;;;;;;;25.60;40.27;100512.50;4971953;28;20081;-70
2021/08/16 07:31:07;;;;;;;12.50;4.00;;;;;;;25.75;39.62;100516.53;4972025;28;20591;-68
2021/08/16 07:33:32;;;;;;;11.60;4.22;;;;;;;25.92;38.69;100515.22;4972060;28;20027;-67
2021/08/16 07:35:58;;;;;;;9.50;3.95;;;;;;;26.03;37.43;100501.72;4970733;28;20417;-70
2021/08/16 07:38:24;;;;;;;11.82;4.32;;;;;;;25.98;37.68;100473.63;4971605;28;20031;-70
2021/08/16 07:40:49;;;;;;;11.95;3.83;;;;;;;26.11;38.49;100508.56;4971942;28;20027;-67
2021/08/16 07:43:18;;;;;;;12.18;4.30;;;;;;;26.16;38.39;100516.41;4953673;28;20136;-70
2021/08/16 07:45:44;;;;;;;10.23;3.80;;;;;;;26.39;36.49;100514.88;4971679;28;20481;-69
2021/08/16 07:48:09;;;;;;;10.77;3.67;;;;;;;26.43;35.05;100512.13;4971803;28;20034;-68
2021/08/16 07:50:35;;;;;;;9.48;4.18;;;;;;;26.36;38.46;100512.34;4971735;28;20023;-69
2021/08/16 07:53:00;;;;;;;8.23;3.85;;;;;;;26.28;36.83;100505.47;4971468;28;20031;-71
2021/08/16 07:55:26;;;;;;;8.43;3.72;;;;;;;26.59;35.50;100515.19;4971858;28;20114;-67
2021/08/16 07:57:52;;;;;;;9.00;4.13;;;;;;;26.64;35.39;100484.16;4971874;28;20030;-69
2021/08/16 08:00:18;;;;;;;7.78;4.00;;;;;;;26.94;35.36;100508.00;4975379;28;20081;-67
2021/08/16 08:02:46;;;;;;;7.13;3.60;;;;;;;27.10;33.01;100516.34;4975546;28;20033;-74
2021/08/16 08:05:20;;;;;;;7.90;4.13;;;;;;;27.19;35.10;100507.25;4975374;28;20023;-70
2021/08/16 08:07:46;;;;;;;7.18;3.47;;;;;;;27.25;34.56;100504.41;4975275;28;20027;-70
2021/08/16 08:10:13;;;;;;;8.52;3.97;;;;;;;27.43;34.74;100495.00;4975339;28;20028;-69
2021/08/16 08:12:39;;;;;;;7.47;3.63;;;;;;;27.56;34.35;100500.75;4975543;28;20047;-69
2021/08/16 08:15:06;;;;;;;6.28;4.20;;;;;;;27.41;35.60;100499.47;4975245;28;20069;-71
2021/08/16 08:17:31;;;;;;;5.50;3.60;;;;;;;27.22;35.00;100461.22;4975104;28;20031;-69
2021/08/16 08:19:57;;;;;;;5.82;3.35;;;;;;;27.74;33.75;100490.47;4975487;28;20030;-70
2021/08/16 08:22:24;;;;;;;7.38;4.03;;;;;;;27.84;34.43;100483.03;4973667;28;20023;-69
2021/08/16 08:24:50;;;;;;;7.20;3.63;;;;;;;27.58;34.37;100459.16;4974988;28;20065;-68
2021/08/16 08:27:17;;;;;;;5.32;3.67;;;;;;;27.98;33.88;100479.91;4974712;28;20039;-70
2021/08/16 08:29:43;;;;;;;5.90;3.75;;;;;;;28.25;32.29;100484.25;4974352;28;20050;-69
2021/08/16 08:32:09;;;;;;;8.93;3.80;;;;;;;28.33;33.52;100476.00;4974951;28;20023;-66
2021/08/16 08:34:35;;;;;;;6.28;3.75;;;;;;;28.43;31.82;100476.53;4974879;28;20023;-69
2021/08/16 08:37:01;;;;;;;6.78;3.65;;;;;;;28.44;31.91;100478.28;4974420;28;20038;-68
2021/08/16 08:39:26;;;;;;;7.30;3.80;;;;;;;28.28;32.22;100464.69;4974084;28;20027;-70
2021/08/16 08:41:56;;;;;;;9.32;3.45;;;;;;;28.55;31.46;100480.53;4972751;28;20081;-70
2021/08/16 08:44:23;;;;;;;6.47;3.80;;;;;;;28.42;31.37;100456.22;4974103;28;20504;-68
2021/08/16 08:46:49;;;;;;;5.13;3.65;;;;;;;28.69;30.79;100472.91;4985850;28;20034;-69
2021/08/16 08:49:15;;;;;;;8.57;3.80;;;;;;;28.76;30.60;100470.88;4973342;28;20023;-70
2021/08/16 08:51:41;;;;;;;5.38;3.70;;;;;;;28.73;32.33;100468.34;4973493;28;20043;-69
2021/08/16 08:54:07;;;;;;;5.63;3.60;;;;;;;28.68;31.10;100459.69;4972745;28;20027;-69
2021/08/16 08:56:33;;;;;;;5.90;3.70;;;;;;;28.79;31.10;100465.44;4974344;28;20054;-69
2021/08/16 08:58:59;;;;;;;5.13;3.60;;;;;;;29.16;29.57;100457.78;4973762;28;20015;-68
2021/08/16 09:01:26;;;;;;;8.60;3.70;;;;;;;29.25;30.20;100454.75;4974185;28;20038;-69
2021/08/16 09:03:55;;;;;;;8.00;3.47;;;;;;;29.34;31.26;100456.22;4973683;28;20065;-67
2021/08/16 09:06:47;;;;;;;6.10;3.47;;;;;;;29.28;31.71;100454.63;4973652;28;20034;-70
2021/08/16 09:09:13;;;;;;;4.95;3.25;;;;;;;29.35;30.21;100445.50;4937990;28;20039;-69
2021/08/16 09:11:43;;;;;;;6.90;3.60;;;;;;;29.38;31.90;100444.50;4937427;28;20048;-68
2021/08/16 09:14:09;;;;;;;8.57;4.18;;;;;;;29.46;30.57;100445.06;4913659;29;20055;-69
2021/08/16 09:16:36;;;;;;;8.88;3.63;;;;;;;29.58;30.32;100434.81;4914007;29;20103;-69
2021/08/16 09:19:41;;;;;;;5.43;3.80;;;;;;;29.71;30.59;100428.03;4913945;29;20063;-71
2021/08/16 09:22:08;;;;;;;4.75;3.40;;;;;;;29.92;30.48;100434.25;4892568;29;20547;-70
2021/08/16 09:24:35;;;;;;;7.97;3.75;;;;;;;30.08;30.34;100431.72;4892214;29;20029;-73
2021/08/16 09:27:05;;;;;;;7.53;3.55;;;;;;;30.23;33.00;100421.34;4894789;29;20479;-71
2021/08/16 09:29:31;;;;;;;7.30;3.88;;;;;;;30.39;29.95;100426.81;4894810;29;20063;-72
2021/08/16 09:32:04;;;;;;;5.70;3.45;;;;;;;30.46;29.97;100418.47;4901258;29;20098;-69
2021/08/16 09:34:41;;;;;;;7.15;3.88;;;;;;;30.63;29.29;100420.38;4898427;29;20132;-70
2021/08/16 09:37:23;;;;;;;6.38;3.45;;;;;;;30.76;28.39;100414.44;4894783;29;20101;-69
2021/08/16 09:40:04;;;;;;;4.88;3.20;;;;;;;30.83;27.62;100415.88;4878881;29;20047;-67
2021/08/16 09:42:49;;;;;;;9.93;3.40;;;;;;;30.91;27.70;100416.34;4879251;29;20041;-66
2021/08/16 09:45:39;;;;;;;7.38;3.88;;;;;;;31.01;27.68;100407.91;4889415;29;20463;-68
2021/08/16 09:48:07;;;;;;;5.18;3.70;;;;;;;31.16;28.60;100406.31;4876328;29;20174;-67
2021/08/16 09:50:45;;;;;;;8.70;4.15;;;;;;;31.31;28.81;100400.19;4874120;29;20044;-69
2021/08/16 09:53:12;;;;;;;6.55;3.83;;;;;;;31.44;27.50;100393.28;4876392;29;20029;-69
2021/08/16 09:55:45;;;;;;;8.40;3.80;;;;;;;31.63;27.57;100395.00;4875923;29;20029;-68
2021/08/16 09:58:13;;;;;;;7.65;4.05;;;;;;;31.79;27.25;100400.44;4899546;29;20046;-69
2021/08/16 10:00:43;;;;;;;6.72;3.72;;;;;;;31.71;26.03;100363.44;4934325;29;20098;-69
2021/08/16 10:03:11;;;;;;;7.30;3.90;;;;;;;32.00;27.33;100393.09;4933505;29;20036;-70
2021/08/16 10:05:39;;;;;;;8.52;3.90;;;;;;;32.13;27.83;100387.03;4934572;29;20561;-67
2021/08/16 10:08:07;;;;;;;6.20;3.50;;;;;;;32.30;25.52;100388.81;4934414;29;20110;-70
2021/08/16 10:10:34;;;;;;;6.63;3.70;;;;;;;32.39;26.11;100393.66;4933828;29;20027;-70
2021/08/16 10:13:02;;;;;;;6.70;3.40;;;;;;;32.43;26.18;100382.72;4955576;28;20282;-70
2021/08/16 10:15:30;;;;;;;6.50;3.38;;;;;;;32.53;24.36;100379.53;4972912;28;20117;-69
2021/08/16 10:17:57;;;;;;;6.72;3.75;;;;;;;32.57;26.13;100376.56;4972705;28;20037;-69
2021/08/16 10:20:28;;;;;;;6.13;3.30;;;;;;;32.22;25.05;100378.56;4972789;28;20405;-69
2021/08/16 10:22:54;;;;;;;6.35;3.72;;;;;;;32.52;27.73;100373.31;4970602;28;20034;-68
2021/08/16 10:25:19;;;;;;;9.07;3.35;;;;;;;32.71;23.51;100370.47;4972218;28;20556;-67
2021/08/16 10:27:45;;;;;;;5.50;3.20;;;;;;;32.29;23.11;100320.31;4972299;28;20037;-72
2021/08/16 10:30:13;;;;;;;5.80;3.47;;;;;;;32.58;24.21;100364.94;4972198;28;20050;-68
2021/08/16 10:32:39;;;;;;;7.30;3.33;;;;;;;32.64;22.83;100349.50;4970172;28;20437;-69
2021/08/16 10:35:13;;;;;;;7.10;3.20;;;;;;;32.87;23.12;100357.06;4972392;28;20038;-69
2021/08/16 10:37:43;;;;;;;6.40;3.63;;;;;;;32.97;23.31;100356.56;4972097;28;20521;-71
2021/08/16 10:40:15;;;;;;;5.32;3.28;;;;;;;33.07;23.46;100357.72;4972383;28;20088;-69
2021/08/16 10:42:41;;;;;;;5.95;3.28;;;;;;;33.08;22.73;100355.94;4970466;28;20031;-70
2021/08/16 10:45:09;;;;;;;4.80;3.05;;;;;;;32.97;22.76;100341.34;4969577;28;20180;-68
2021/08/16 10:47:36;;;;;;;6.53;3.15;;;;;;;32.70;22.31;100352.69;4972085;28;20029;-67
2021/08/16 10:50:10;;;;;;;5.57;3.00;;;;;;;32.80;22.86;100341.50;4971872;28;20038;-70
2021/08/16 10:52:38;;;;;;;8.15;3.30;;;;;;;33.05;21.71;100347.13;4971003;28;20034;-69
2021/08/16 10:55:08;;;;;;;6.78;3.63;;;;;;;32.49;22.52;100345.91;4972506;28;20019;-68
2021/08/16 10:57:35;;;;;;;11.45;4.15;;;;;;;32.88;23.37;100341.91;4972487;28;20038;-69
2021/08/16 11:00:01;;;;;;;12.90;4.20;;;;;;;33.36;23.26;100329.25;4972631;28;20029;-71
2021/08/16 11:02:26;;;;;;;8.48;4.07;;;;;;;33.44;23.77;100325.25;4972904;28;20129;-69
2021/08/16 11:04:52;;;;;;;8.40;4.00;;;;;;;33.60;23.04;100328.69;4975265;28;20026;-73
2021/08/16 11:07:24;;;;;;;7.32;3.97;;;;;;;33.43;22.89;100286.91;4972074;28;20089;-69
2021/08/16 11:09:58;;;;;;;8.40;3.70;;;;;;;33.99;21.15;100310.25;4972411;28;20023;-72
2021/08/16 11:12:45;;;;;;;7.78;3.72;;;;;;;34.28;21.64;100316.41;4971793;28;20421;-67
2021/08/16 11:15:15;;;;;;;8.50;4.03;;;;;;;34.27;20.77;100320.03;4971567;28;20093;-69
2021/08/16 11:17:41;;;;;;;13.32;3.60;;;;;;;34.17;19.87;100301.03;4961371;28;20142;-71
2021/08/16 11:20:15;;;;;;;11.38;4.53;;;;;;;34.12;20.64;100304.94;4950965;28;20717;-74